sensor_id;sensor_type;location;lat;lon;timestamp;temperature;humidity
30889;DHT22;51092;50.874;7.024;2023-04-29T00:00:23;12.20;99.90
30889;DHT22;51092;50.874;7.024;2023-04-29T00:01:27;12.20;99.90
30889;DHT22;51092;50.874;7.024;2023-04-29T00:02:29;12.20;99.90
30889;DHT22;51092;50.874;7.024;2023-04-29T00:03:32;12.10;99.90
30889;DHT22;51092;50.874;7.024;2023-04-29T00:04:35;12.10;99.90
30889;DHT22;51092;50.874;7.024;2023-04-29T00:05:36;12.10;99.90
30889;DHT22;51092;50.874;7.024;2023-04-29T00:06:39;12.00;99.90
30889;DHT22;51092;50.874;7.024;2023-04-29T00:07:40;12.00;99.90
30889;DHT22;51092;50.874;7.024;2023-04-29T00:08:44;12.00;99.90
30889;DHT22;51092;50.874;7.024;2023-04-29T00:09:45;12.00;99.90
30889;DHT22;51092;50.874;7.024;2023-04-29T00:10:48;12.10;99.90
30889;DHT22;51092;50.874;7.024;2023-04-29T00:11:50;12.10;99.90
30889;DHT22;51092;50.874;7.024;2023-04-29T00:12:52;12.10;99.90
30889;DHT22;51092;50.874;7.024;2023-04-29T00:13:54;12.10;99.90
30889;DHT22;51092;50.874;7.024;2023-04-29T00:14:57;12.10;99.90
30889;DHT22;51092;50.874;7.024;2023-04-29T00:15:58;12.10;99.90
30889;DHT22;51092;50.874;7.024;2023-04-29T00:17:02;12.10;99.90
30889;DHT22;51092;50.874;7.024;2023-04-29T00:18:03;12.10;99.90
30889;DHT22;51092;50.874;7.024;2023-04-29T00:19:06;12.10;99.90
30889;DHT22;51092;50.874;7.024;2023-04-29T00:20:08;12.10;99.90
30889;DHT22;51092;50.874;7.024;2023-04-29T00:21:12;12.20;99.90
30889;DHT22;51092;50.874;7.024;2023-04-29T00:22:13;12.20;99.90
30889;DHT22;51092;50.874;7.024;2023-04-29T00:23:15;12.20;99.90
30889;DHT22;51092;50.874;7.024;2023-04-29T00:24:17;12.20;99.90
30889;DHT22;51092;50.874;7.024;2023-04-29T00:25:19;12.20;99.90
30889;DHT22;51092;50.874;7.024;2023-04-29T00:26:21;12.20;99.90
30889;DHT22;51092;50.874;7.024;2023-04-29T00:27:23;12.20;99.90
30889;DHT22;51092;50.874;7.024;2023-04-29T00:28:24;12.20;99.90
30889;DHT22;51092;50.874;7.024;2023-04-29T00:29:26;12.20;99.90
30889;DHT22;51092;50.874;7.024;2023-04-29T00:30:27;12.20;99.90
30889;DHT22;51092;50.874;7.024;2023-04-29T00:31:29;12.20;99.90
30889;DHT22;51092;50.874;7.024;2023-04-29T00:32:34;12.20;99.90
30889;DHT22;51092;50.874;7.024;2023-04-29T00:33:36;12.20;99.90
30889;DHT22;51092;50.874;7.024;2023-04-29T00:34:38;12.20;99.90
30889;DHT22;51092;50.874;7.024;2023-04-29T00:35:40;12.30;99.90
30889;DHT22;51092;50.874;7.024;2023-04-29T00:36:42;12.20;99.90
30889;DHT22;51092;50.874;7.024;2023-04-29T00:37:44;12.30;99.90
30889;DHT22;51092;50.874;7.024;2023-04-29T00:38:46;12.20;99.90
30889;DHT22;51092;50.874;7.024;2023-04-29T00:39:48;12.20;99.90
30889;DHT22;51092;50.874;7.024;2023-04-29T00:40:50;12.20;99.90
30889;DHT22;51092;50.874;7.024;2023-04-29T00:41:53;12.20;99.90
30889;DHT22;51092;50.874;7.024;2023-04-29T00:42:54;12.20;99.90
30889;DHT22;51092;50.874;7.024;2023-04-29T00:43:57;12.20;99.90
30889;DHT22;51092;50.874;7.024;2023-04-29T00:44:58;12.20;99.90
30889;DHT22;51092;50.874;7.024;2023-04-29T00:46:01;12.20;99.90
30889;DHT22;51092;50.874;7.024;2023-04-29T00:47:02;12.20;99.90
30889;DHT22;51092;50.874;7.024;2023-04-29T00:48:06;12.20;99.90
30889;DHT22;51092;50.874;7.024;2023-04-29T00:49:08;12.20;99.90
30889;DHT22;51092;50.874;7.024;2023-04-29T00:50:12;12.20;99.90
30889;DHT22;51092;50.874;7.024;2023-04-29T00:51:15;12.20;99.90
30889;DHT22;51092;50.874;7.024;2023-04-29T00:52:18;12.10;99.90
30889;DHT22;51092;50.874;7.024;2023-04-29T00:53:20;12.20;99.90
30889;DHT22;51092;50.874;7.024;2023-04-29T00:54:23;12.10;99.90
30889;DHT22;51092;50.874;7.024;2023-04-29T00:55:24;12.10;99.90
30889;DHT22;51092;50.874;7.024;2023-04-29T00:56:28;12.20;99.90
30889;DHT22;51092;50.874;7.024;2023-04-29T00:57:33;12.20;99.90
30889;DHT22;51092;50.874;7.024;2023-04-29T00:58:35;12.20;99.90
30889;DHT22;51092;50.874;7.024;2023-04-29T00:59:39;12.20;99.90
30889;DHT22;51092;50.874;7.024;2023-04-29T01:00:42;12.10;99.90
30889;DHT22;51092;50.874;7.024;2023-04-29T01:01:44;12.10;99.90
30889;DHT22;51092;50.874;7.024;2023-04-29T01:02:47;12.10;99.90
30889;DHT22;51092;50.874;7.024;2023-04-29T01:03:51;12.10;99.90
30889;DHT22;51092;50.874;7.024;2023-04-29T01:04:54;12.10;99.90
30889;DHT22;51092;50.874;7.024;2023-04-29T01:06:05;12.10;99.90
30889;DHT22;51092;50.874;7.024;2023-04-29T01:07:14;12.20;99.90
30889;DHT22;51092;50.874;7.024;2023-04-29T01:08:33;12.10;99.90
30889;DHT22;51092;50.874;7.024;2023-04-29T01:09:47;12.10;99.90
30889;DHT22;51092;50.874;7.024;2023-04-29T01:10:54;12.10;99.90
30889;DHT22;51092;50.874;7.024;2023-04-29T01:12:06;12.10;99.90
30889;DHT22;51092;50.874;7.024;2023-04-29T01:13:16;12.10;99.90
30889;DHT22;51092;50.874;7.024;2023-04-29T01:14:19;12.10;99.90
30889;DHT22;51092;50.874;7.024;2023-04-29T01:15:26;12.10;99.90
30889;DHT22;51092;50.874;7.024;2023-04-29T01:16:39;12.10;99.90
30889;DHT22;51092;50.874;7.024;2023-04-29T01:17:45;12.10;99.90
30889;DHT22;51092;50.874;7.024;2023-04-29T01:18:54;12.20;99.90
30889;DHT22;51092;50.874;7.024;2023-04-29T01:19:58;12.20;99.90
30889;DHT22;51092;50.874;7.024;2023-04-29T01:21:02;12.20;99.90
30889;DHT22;51092;50.874;7.024;2023-04-29T01:22:03;12.10;99.90
30889;DHT22;51092;50.874;7.024;2023-04-29T01:23:06;12.10;99.90
30889;DHT22;51092;50.874;7.024;2023-04-29T01:24:08;12.10;99.90
30889;DHT22;51092;50.874;7.024;2023-04-29T01:25:11;12.10;99.90
30889;DHT22;51092;50.874;7.024;2023-04-29T01:26:13;12.20;99.90
30889;DHT22;51092;50.874;7.024;2023-04-29T01:27:22;12.30;99.90
30889;DHT22;51092;50.874;7.024;2023-04-29T01:28:37;12.30;99.90
30889;DHT22;51092;50.874;7.024;2023-04-29T01:29:46;12.40;99.90
30889;DHT22;51092;50.874;7.024;2023-04-29T01:30:57;12.30;99.90
30889;DHT22;51092;50.874;7.024;2023-04-29T01:32:04;12.30;99.90
30889;DHT22;51092;50.874;7.024;2023-04-29T01:33:15;12.30;99.90
30889;DHT22;51092;50.874;7.024;2023-04-29T01:34:23;12.30;99.90
30889;DHT22;51092;50.874;7.024;2023-04-29T01:36:01;12.20;99.90
30889;DHT22;51092;50.874;7.024;2023-04-29T01:37:12;12.20;99.90
30889;DHT22;51092;50.874;7.024;2023-04-29T01:38:21;12.20;99.90
30889;DHT22;51092;50.874;7.024;2023-04-29T01:39:30;12.20;99.90
30889;DHT22;51092;50.874;7.024;2023-04-29T01:40:37;12.20;99.90
30889;DHT22;51092;50.874;7.024;2023-04-29T01:41:44;12.20;99.90
30889;DHT22;51092;50.874;7.024;2023-04-29T01:42:50;12.20;99.90
30889;DHT22;51092;50.874;7.024;2023-04-29T01:43:55;12.20;99.90
30889;DHT22;51092;50.874;7.024;2023-04-29T01:44:59;12.20;99.90
30889;DHT22;51092;50.874;7.024;2023-04-29T01:46:05;12.20;99.90
30889;DHT22;51092;50.874;7.024;2023-04-29T01:47:09;12.20;99.90
30889;DHT22;51092;50.874;7.024;2023-04-29T01:48:14;12.20;99.90
30889;DHT22;51092;50.874;7.024;2023-04-29T01:49:19;12.20;99.90
30889;DHT22;51092;50.874;7.024;2023-04-29T01:50:21;12.20;99.90
30889;DHT22;51092;50.874;7.024;2023-04-29T01:51:23;12.20;99.90
30889;DHT22;51092;50.874;7.024;2023-04-29T01:52:26;12.20;99.90
30889;DHT22;51092;50.874;7.024;2023-04-29T01:53:28;12.20;99.90
30889;DHT22;51092;50.874;7.024;2023-04-29T01:54:32;12.20;99.90
30889;DHT22;51092;50.874;7.024;2023-04-29T01:55:36;12.20;99.90
30889;DHT22;51092;50.874;7.024;2023-04-29T01:56:38;12.10;99.90
30889;DHT22;51092;50.874;7.024;2023-04-29T01:57:40;12.10;99.90
30889;DHT22;51092;50.874;7.024;2023-04-29T01:58:43;12.10;99.90
30889;DHT22;51092;50.874;7.024;2023-04-29T01:59:44;12.10;99.90
30889;DHT22;51092;50.874;7.024;2023-04-29T02:00:47;12.00;99.90
30889;DHT22;51092;50.874;7.024;2023-04-29T02:01:48;11.90;99.90
30889;DHT22;51092;50.874;7.024;2023-04-29T02:02:51;12.00;99.90
30889;DHT22;51092;50.874;7.024;2023-04-29T02:03:53;12.00;99.90
30889;DHT22;51092;50.874;7.024;2023-04-29T02:04:55;12.00;99.90
30889;DHT22;51092;50.874;7.024;2023-04-29T02:05:57;12.10;99.90
30889;DHT22;51092;50.874;7.024;2023-04-29T02:06:59;12.00;99.90
30889;DHT22;51092;50.874;7.024;2023-04-29T02:08:02;11.90;99.90
30889;DHT22;51092;50.874;7.024;2023-04-29T02:09:04;11.80;99.90
30889;DHT22;51092;50.874;7.024;2023-04-29T02:10:08;11.80;99.90
30889;DHT22;51092;50.874;7.024;2023-04-29T02:11:11;11.70;99.90
30889;DHT22;51092;50.874;7.024;2023-04-29T02:12:12;11.80;99.90
30889;DHT22;51092;50.874;7.024;2023-04-29T02:13:14;11.80;99.90
30889;DHT22;51092;50.874;7.024;2023-04-29T02:14:16;11.80;99.90
30889;DHT22;51092;50.874;7.024;2023-04-29T02:15:18;11.80;99.90
30889;DHT22;51092;50.874;7.024;2023-04-29T02:16:20;11.80;99.90
30889;DHT22;51092;50.874;7.024;2023-04-29T02:17:22;11.90;99.90
30889;DHT22;51092;50.874;7.024;2023-04-29T02:18:24;11.80;99.90
30889;DHT22;51092;50.874;7.024;2023-04-29T02:19:26;11.70;99.90
30889;DHT22;51092;50.874;7.024;2023-04-29T02:20:28;11.70;99.90
30889;DHT22;51092;50.874;7.024;2023-04-29T02:21:31;11.70;99.90
30889;DHT22;51092;50.874;7.024;2023-04-29T02:22:32;11.60;99.90
30889;DHT22;51092;50.874;7.024;2023-04-29T02:23:35;11.60;99.90
30889;DHT22;51092;50.874;7.024;2023-04-29T02:24:36;11.60;99.90
30889;DHT22;51092;50.874;7.024;2023-04-29T02:25:40;11.70;99.90
30889;DHT22;51092;50.874;7.024;2023-04-29T02:26:42;11.70;99.90
30889;DHT22;51092;50.874;7.024;2023-04-29T02:27:45;11.70;99.90
30889;DHT22;51092;50.874;7.024;2023-04-29T02:28:46;11.70;99.90
30889;DHT22;51092;50.874;7.024;2023-04-29T02:29:49;11.70;99.90
30889;DHT22;51092;50.874;7.024;2023-04-29T02:30:51;11.60;99.90
30889;DHT22;51092;50.874;7.024;2023-04-29T02:31:54;11.60;99.90
30889;DHT22;51092;50.874;7.024;2023-04-29T02:32:56;11.60;99.90
30889;DHT22;51092;50.874;7.024;2023-04-29T02:33:58;11.50;99.90
30889;DHT22;51092;50.874;7.024;2023-04-29T02:35:00;11.60;99.90
30889;DHT22;51092;50.874;7.024;2023-04-29T02:36:03;11.60;99.90
30889;DHT22;51092;50.874;7.024;2023-04-29T02:37:05;11.50;99.90
30889;DHT22;51092;50.874;7.024;2023-04-29T02:38:07;11.60;99.90
30889;DHT22;51092;50.874;7.024;2023-04-29T02:39:09;11.60;99.90
30889;DHT22;51092;50.874;7.024;2023-04-29T02:40:12;11.60;99.90
30889;DHT22;51092;50.874;7.024;2023-04-29T02:41:16;11.60;99.90
30889;DHT22;51092;50.874;7.024;2023-04-29T02:42:19;11.60;99.90
30889;DHT22;51092;50.874;7.024;2023-04-29T02:43:20;11.70;99.90
30889;DHT22;51092;50.874;7.024;2023-04-29T02:44:23;11.70;99.90
30889;DHT22;51092;50.874;7.024;2023-04-29T02:45:24;11.70;99.90
30889;DHT22;51092;50.874;7.024;2023-04-29T02:46:27;11.60;99.90
30889;DHT22;51092;50.874;7.024;2023-04-29T02:47:28;11.60;99.90
30889;DHT22;51092;50.874;7.024;2023-04-29T02:48:31;11.50;99.90
30889;DHT22;51092;50.874;7.024;2023-04-29T02:49:32;11.50;99.90
30889;DHT22;51092;50.874;7.024;2023-04-29T02:50:34;11.50;99.90
30889;DHT22;51092;50.874;7.024;2023-04-29T02:51:36;11.50;99.90
30889;DHT22;51092;50.874;7.024;2023-04-29T02:52:38;11.50;99.90
30889;DHT22;51092;50.874;7.024;2023-04-29T02:53:42;11.50;99.90
30889;DHT22;51092;50.874;7.024;2023-04-29T02:54:44;11.60;99.90
30889;DHT22;51092;50.874;7.024;2023-04-29T02:55:46;11.70;99.90
30889;DHT22;51092;50.874;7.024;2023-04-29T02:56:49;11.60;99.90
30889;DHT22;51092;50.874;7.024;2023-04-29T02:57:51;11.60;99.90
30889;DHT22;51092;50.874;7.024;2023-04-29T02:58:52;11.60;99.90
30889;DHT22;51092;50.874;7.024;2023-04-29T02:59:54;11.50;99.90
30889;DHT22;51092;50.874;7.024;2023-04-29T03:00:56;11.50;99.90
30889;DHT22;51092;50.874;7.024;2023-04-29T03:01:58;11.40;99.90
30889;DHT22;51092;50.874;7.024;2023-04-29T03:03:00;11.40;99.90
30889;DHT22;51092;50.874;7.024;2023-04-29T03:04:03;11.40;99.90
30889;DHT22;51092;50.874;7.024;2023-04-29T03:05:05;11.40;99.90
30889;DHT22;51092;50.874;7.024;2023-04-29T03:06:08;11.50;99.90
30889;DHT22;51092;50.874;7.024;2023-04-29T03:07:10;11.40;99.90
30889;DHT22;51092;50.874;7.024;2023-04-29T03:08:12;11.50;99.90
30889;DHT22;51092;50.874;7.024;2023-04-29T03:09:14;11.50;99.90
30889;DHT22;51092;50.874;7.024;2023-04-29T03:10:16;11.50;99.90
30889;DHT22;51092;50.874;7.024;2023-04-29T03:11:19;11.50;99.90
30889;DHT22;51092;50.874;7.024;2023-04-29T03:12:22;11.50;99.90
30889;DHT22;51092;50.874;7.024;2023-04-29T03:13:24;11.50;99.90
30889;DHT22;51092;50.874;7.024;2023-04-29T03:14:26;11.50;99.90
30889;DHT22;51092;50.874;7.024;2023-04-29T03:15:29;11.50;99.90
30889;DHT22;51092;50.874;7.024;2023-04-29T03:16:31;11.50;99.90
30889;DHT22;51092;50.874;7.024;2023-04-29T03:17:34;11.40;99.90
30889;DHT22;51092;50.874;7.024;2023-04-29T03:18:36;11.30;99.90
30889;DHT22;51092;50.874;7.024;2023-04-29T03:19:39;11.40;99.90
30889;DHT22;51092;50.874;7.024;2023-04-29T03:20:40;11.40;99.90
30889;DHT22;51092;50.874;7.024;2023-04-29T03:21:43;11.40;99.90
30889;DHT22;51092;50.874;7.024;2023-04-29T03:22:45;11.40;99.90
30889;DHT22;51092;50.874;7.024;2023-04-29T03:23:47;11.40;99.90
30889;DHT22;51092;50.874;7.024;2023-04-29T03:24:49;11.40;99.90
30889;DHT22;51092;50.874;7.024;2023-04-29T03:25:51;11.50;99.90
30889;DHT22;51092;50.874;7.024;2023-04-29T03:26:55;11.40;99.90
30889;DHT22;51092;50.874;7.024;2023-04-29T03:27:58;11.40;99.90
30889;DHT22;51092;50.874;7.024;2023-04-29T03:29:01;11.30;99.90
30889;DHT22;51092;50.874;7.024;2023-04-29T03:30:03;11.30;99.90
30889;DHT22;51092;50.874;7.024;2023-04-29T03:31:05;11.30;99.90
30889;DHT22;51092;50.874;7.024;2023-04-29T03:32:06;11.30;99.90
30889;DHT22;51092;50.874;7.024;2023-04-29T03:33:09;11.30;99.90
30889;DHT22;51092;50.874;7.024;2023-04-29T03:34:11;11.20;99.90
30889;DHT22;51092;50.874;7.024;2023-04-29T03:35:14;11.20;99.90
30889;DHT22;51092;50.874;7.024;2023-04-29T03:36:17;11.20;99.90
30889;DHT22;51092;50.874;7.024;2023-04-29T03:37:20;11.20;99.90
30889;DHT22;51092;50.874;7.024;2023-04-29T03:38:21;11.20;99.90
30889;DHT22;51092;50.874;7.024;2023-04-29T03:39:26;11.20;99.90
30889;DHT22;51092;50.874;7.024;2023-04-29T03:40:31;11.30;99.90
30889;DHT22;51092;50.874;7.024;2023-04-29T03:41:34;11.20;99.90
30889;DHT22;51092;50.874;7.024;2023-04-29T03:42:35;11.10;99.90
30889;DHT22;51092;50.874;7.024;2023-04-29T03:43:39;11.10;99.90
30889;DHT22;51092;50.874;7.024;2023-04-29T03:44:41;11.00;99.90
30889;DHT22;51092;50.874;7.024;2023-04-29T03:45:43;11.00;99.90
30889;DHT22;51092;50.874;7.024;2023-04-29T03:46:45;10.90;99.90
30889;DHT22;51092;50.874;7.024;2023-04-29T03:47:47;10.90;99.90
30889;DHT22;51092;50.874;7.024;2023-04-29T03:48:49;10.80;99.90
30889;DHT22;51092;50.874;7.024;2023-04-29T03:49:52;10.80;99.90
30889;DHT22;51092;50.874;7.024;2023-04-29T03:50:53;10.80;99.90
30889;DHT22;51092;50.874;7.024;2023-04-29T03:51:56;10.80;99.90
30889;DHT22;51092;50.874;7.024;2023-04-29T03:52:57;10.80;99.90
30889;DHT22;51092;50.874;7.024;2023-04-29T03:54:00;10.80;99.90
30889;DHT22;51092;50.874;7.024;2023-04-29T03:55:02;10.80;99.90
30889;DHT22;51092;50.874;7.024;2023-04-29T03:56:04;10.70;99.90
30889;DHT22;51092;50.874;7.024;2023-04-29T03:57:06;10.60;99.90
30889;DHT22;51092;50.874;7.024;2023-04-29T03:58:08;10.60;99.90
30889;DHT22;51092;50.874;7.024;2023-04-29T03:59:11;10.50;99.90
30889;DHT22;51092;50.874;7.024;2023-04-29T04:00:14;10.40;99.90
30889;DHT22;51092;50.874;7.024;2023-04-29T04:01:15;10.40;99.90
30889;DHT22;51092;50.874;7.024;2023-04-29T04:02:17;10.50;99.90
30889;DHT22;51092;50.874;7.024;2023-04-29T04:03:19;10.50;99.90
30889;DHT22;51092;50.874;7.024;2023-04-29T04:04:22;10.50;99.90
30889;DHT22;51092;50.874;7.024;2023-04-29T04:05:24;10.50;99.90
30889;DHT22;51092;50.874;7.024;2023-04-29T04:06:26;10.40;99.90
30889;DHT22;51092;50.874;7.024;2023-04-29T04:07:28;10.40;99.90
30889;DHT22;51092;50.874;7.024;2023-04-29T04:08:30;10.40;99.90
30889;DHT22;51092;50.874;7.024;2023-04-29T04:09:32;10.40;99.90
30889;DHT22;51092;50.874;7.024;2023-04-29T04:10:34;10.30;99.90
30889;DHT22;51092;50.874;7.024;2023-04-29T04:11:36;10.30;99.90
30889;DHT22;51092;50.874;7.024;2023-04-29T04:12:39;10.30;99.90
30889;DHT22;51092;50.874;7.024;2023-04-29T04:13:40;10.30;99.90
30889;DHT22;51092;50.874;7.024;2023-04-29T04:14:45;10.30;99.90
30889;DHT22;51092;50.874;7.024;2023-04-29T04:15:48;10.30;99.90
30889;DHT22;51092;50.874;7.024;2023-04-29T04:16:52;10.20;99.90
30889;DHT22;51092;50.874;7.024;2023-04-29T04:17:53;10.20;99.90
30889;DHT22;51092;50.874;7.024;2023-04-29T04:18:56;10.10;99.90
30889;DHT22;51092;50.874;7.024;2023-04-29T04:19:57;10.10;99.90
30889;DHT22;51092;50.874;7.024;2023-04-29T04:21:04;10.10;99.90
30889;DHT22;51092;50.874;7.024;2023-04-29T04:22:06;10.10;99.90
30889;DHT22;51092;50.874;7.024;2023-04-29T04:23:08;10.10;99.90
30889;DHT22;51092;50.874;7.024;2023-04-29T04:24:10;10.10;99.90
30889;DHT22;51092;50.874;7.024;2023-04-29T04:25:13;10.10;99.90
30889;DHT22;51092;50.874;7.024;2023-04-29T04:26:15;10.10;99.90
30889;DHT22;51092;50.874;7.024;2023-04-29T04:27:19;10.00;99.90
30889;DHT22;51092;50.874;7.024;2023-04-29T04:28:20;10.10;99.90
30889;DHT22;51092;50.874;7.024;2023-04-29T04:29:23;10.00;99.90
30889;DHT22;51092;50.874;7.024;2023-04-29T04:30:25;10.00;99.90
30889;DHT22;51092;50.874;7.024;2023-04-29T04:31:28;9.90;99.90
30889;DHT22;51092;50.874;7.024;2023-04-29T04:32:30;9.90;99.90
30889;DHT22;51092;50.874;7.024;2023-04-29T04:33:32;9.90;99.90
30889;DHT22;51092;50.874;7.024;2023-04-29T04:34:34;9.80;99.90
30889;DHT22;51092;50.874;7.024;2023-04-29T04:35:37;9.80;99.90
30889;DHT22;51092;50.874;7.024;2023-04-29T04:36:38;9.80;99.90
30889;DHT22;51092;50.874;7.024;2023-04-29T04:37:41;9.80;99.90
30889;DHT22;51092;50.874;7.024;2023-04-29T04:38:43;9.80;99.90
30889;DHT22;51092;50.874;7.024;2023-04-29T04:39:45;9.70;99.90
30889;DHT22;51092;50.874;7.024;2023-04-29T04:40:47;9.70;99.90
30889;DHT22;51092;50.874;7.024;2023-04-29T04:41:50;9.70;99.90
30889;DHT22;51092;50.874;7.024;2023-04-29T04:42:51;9.80;99.90
30889;DHT22;51092;50.874;7.024;2023-04-29T04:43:53;9.70;99.90
30889;DHT22;51092;50.874;7.024;2023-04-29T04:44:55;9.70;99.90
30889;DHT22;51092;50.874;7.024;2023-04-29T04:45:59;9.80;99.90
30889;DHT22;51092;50.874;7.024;2023-04-29T04:47:00;9.70;99.90
30889;DHT22;51092;50.874;7.024;2023-04-29T04:48:03;9.80;99.90
30889;DHT22;51092;50.874;7.024;2023-04-29T04:49:04;9.80;99.90
30889;DHT22;51092;50.874;7.024;2023-04-29T04:50:08;9.70;99.90
30889;DHT22;51092;50.874;7.024;2023-04-29T04:51:10;9.80;99.90
30889;DHT22;51092;50.874;7.024;2023-04-29T04:52:13;9.70;99.90
30889;DHT22;51092;50.874;7.024;2023-04-29T04:53:14;9.80;99.90
30889;DHT22;51092;50.874;7.024;2023-04-29T04:54:17;9.80;99.90
30889;DHT22;51092;50.874;7.024;2023-04-29T04:55:19;9.80;99.90
30889;DHT22;51092;50.874;7.024;2023-04-29T04:56:21;9.80;99.90
30889;DHT22;51092;50.874;7.024;2023-04-29T04:57:23;9.70;99.90
30889;DHT22;51092;50.874;7.024;2023-04-29T04:58:25;9.80;99.90
30889;DHT22;51092;50.874;7.024;2023-04-29T04:59:27;9.80;99.90
30889;DHT22;51092;50.874;7.024;2023-04-29T05:00:29;9.80;99.90
30889;DHT22;51092;50.874;7.024;2023-04-29T05:01:32;9.80;99.90
30889;DHT22;51092;50.874;7.024;2023-04-29T05:02:35;9.70;99.90
30889;DHT22;51092;50.874;7.024;2023-04-29T05:03:37;9.70;99.90
30889;DHT22;51092;50.874;7.024;2023-04-29T05:04:39;9.70;99.90
30889;DHT22;51092;50.874;7.024;2023-04-29T05:05:40;9.70;99.90
30889;DHT22;51092;50.874;7.024;2023-04-29T05:06:43;9.70;99.90
30889;DHT22;51092;50.874;7.024;2023-04-29T05:07:44;9.70;99.90
30889;DHT22;51092;50.874;7.024;2023-04-29T05:08:47;9.70;99.90
30889;DHT22;51092;50.874;7.024;2023-04-29T05:09:48;9.70;99.90
30889;DHT22;51092;50.874;7.024;2023-04-29T05:10:51;9.70;99.90
30889;DHT22;51092;50.874;7.024;2023-04-29T05:11:53;9.70;99.90
30889;DHT22;51092;50.874;7.024;2023-04-29T05:12:56;9.70;99.90
30889;DHT22;51092;50.874;7.024;2023-04-29T05:13:57;9.70;99.90
30889;DHT22;51092;50.874;7.024;2023-04-29T05:15:00;9.70;99.90
30889;DHT22;51092;50.874;7.024;2023-04-29T05:16:02;9.60;99.90
30889;DHT22;51092;50.874;7.024;2023-04-29T05:17:06;9.60;99.90
30889;DHT22;51092;50.874;7.024;2023-04-29T05:18:10;9.60;99.90
30889;DHT22;51092;50.874;7.024;2023-04-29T05:19:12;9.70;99.90
30889;DHT22;51092;50.874;7.024;2023-04-29T05:20:14;9.60;99.90
30889;DHT22;51092;50.874;7.024;2023-04-29T05:21:16;9.60;99.90
30889;DHT22;51092;50.874;7.024;2023-04-29T05:22:18;9.70;99.90
30889;DHT22;51092;50.874;7.024;2023-04-29T05:23:20;9.70;99.90
30889;DHT22;51092;50.874;7.024;2023-04-29T05:24:23;9.70;99.90
30889;DHT22;51092;50.874;7.024;2023-04-29T05:25:26;9.80;99.90
30889;DHT22;51092;50.874;7.024;2023-04-29T05:26:27;9.70;99.90
30889;DHT22;51092;50.874;7.024;2023-04-29T05:27:30;9.80;99.90
30889;DHT22;51092;50.874;7.024;2023-04-29T05:28:31;9.80;99.90
30889;DHT22;51092;50.874;7.024;2023-04-29T05:29:34;9.70;99.90
30889;DHT22;51092;50.874;7.024;2023-04-29T05:30:35;9.70;99.90
30889;DHT22;51092;50.874;7.024;2023-04-29T05:31:38;9.60;99.90
30889;DHT22;51092;50.874;7.024;2023-04-29T05:32:41;9.60;99.90
30889;DHT22;51092;50.874;7.024;2023-04-29T05:33:45;9.60;99.90
30889;DHT22;51092;50.874;7.024;2023-04-29T05:34:47;9.60;99.90
30889;DHT22;51092;50.874;7.024;2023-04-29T05:35:49;9.60;99.90
30889;DHT22;51092;50.874;7.024;2023-04-29T05:36:51;9.70;99.90
30889;DHT22;51092;50.874;7.024;2023-04-29T05:37:53;9.70;99.90
30889;DHT22;51092;50.874;7.024;2023-04-29T05:38:55;9.70;99.90
30889;DHT22;51092;50.874;7.024;2023-04-29T05:39:57;9.70;99.90
30889;DHT22;51092;50.874;7.024;2023-04-29T05:40:58;9.70;99.90
30889;DHT22;51092;50.874;7.024;2023-04-29T05:42:01;9.70;99.90
30889;DHT22;51092;50.874;7.024;2023-04-29T05:43:03;9.80;99.90
30889;DHT22;51092;50.874;7.024;2023-04-29T05:44:05;9.70;99.90
30889;DHT22;51092;50.874;7.024;2023-04-29T05:45:08;9.70;99.90
30889;DHT22;51092;50.874;7.024;2023-04-29T05:46:12;9.80;99.90
30889;DHT22;51092;50.874;7.024;2023-04-29T05:47:14;9.70;99.90
30889;DHT22;51092;50.874;7.024;2023-04-29T05:48:17;9.70;99.90
30889;DHT22;51092;50.874;7.024;2023-04-29T05:49:19;9.80;99.90
30889;DHT22;51092;50.874;7.024;2023-04-29T05:50:21;9.70;99.90
30889;DHT22;51092;50.874;7.024;2023-04-29T05:51:23;9.70;99.90
30889;DHT22;51092;50.874;7.024;2023-04-29T05:52:26;9.70;99.90
30889;DHT22;51092;50.874;7.024;2023-04-29T05:53:27;9.60;99.90
30889;DHT22;51092;50.874;7.024;2023-04-29T05:54:30;9.60;99.90
30889;DHT22;51092;50.874;7.024;2023-04-29T05:55:31;9.70;99.90
30889;DHT22;51092;50.874;7.024;2023-04-29T05:56:34;9.70;99.90
30889;DHT22;51092;50.874;7.024;2023-04-29T05:57:36;9.70;99.90
30889;DHT22;51092;50.874;7.024;2023-04-29T05:58:38;9.60;99.90
30889;DHT22;51092;50.874;7.024;2023-04-29T05:59:40;9.70;99.90
30889;DHT22;51092;50.874;7.024;2023-04-29T06:00:42;9.80;99.90
30889;DHT22;51092;50.874;7.024;2023-04-29T06:01:45;9.80;99.90
30889;DHT22;51092;50.874;7.024;2023-04-29T06:02:46;9.70;99.90
30889;DHT22;51092;50.874;7.024;2023-04-29T06:03:50;9.80;99.90
30889;DHT22;51092;50.874;7.024;2023-04-29T06:04:51;9.80;99.90
30889;DHT22;51092;50.874;7.024;2023-04-29T06:05:54;9.80;99.90
30889;DHT22;51092;50.874;7.024;2023-04-29T06:06:56;9.80;99.90
30889;DHT22;51092;50.874;7.024;2023-04-29T06:07:58;9.80;99.90
30889;DHT22;51092;50.874;7.024;2023-04-29T06:09:00;9.90;99.90
30889;DHT22;51092;50.874;7.024;2023-04-29T06:10:03;9.90;99.90
30889;DHT22;51092;50.874;7.024;2023-04-29T06:11:05;9.90;99.90
30889;DHT22;51092;50.874;7.024;2023-04-29T06:12:07;9.90;99.90
30889;DHT22;51092;50.874;7.024;2023-04-29T06:13:09;9.90;99.90
30889;DHT22;51092;50.874;7.024;2023-04-29T06:14:11;10.00;99.90
30889;DHT22;51092;50.874;7.024;2023-04-29T06:15:12;10.10;99.90
30889;DHT22;51092;50.874;7.024;2023-04-29T06:16:15;10.00;99.90
30889;DHT22;51092;50.874;7.024;2023-04-29T06:17:17;10.00;99.90
30889;DHT22;51092;50.874;7.024;2023-04-29T06:18:19;10.00;99.90
30889;DHT22;51092;50.874;7.024;2023-04-29T06:19:22;10.00;99.90
30889;DHT22;51092;50.874;7.024;2023-04-29T06:20:25;10.00;99.90
30889;DHT22;51092;50.874;7.024;2023-04-29T06:21:27;10.00;99.90
30889;DHT22;51092;50.874;7.024;2023-04-29T06:22:30;10.00;99.90
30889;DHT22;51092;50.874;7.024;2023-04-29T06:23:31;10.00;99.90
30889;DHT22;51092;50.874;7.024;2023-04-29T06:24:34;10.10;99.90
30889;DHT22;51092;50.874;7.024;2023-04-29T06:25:35;10.00;99.90
30889;DHT22;51092;50.874;7.024;2023-04-29T06:26:37;9.90;99.90
30889;DHT22;51092;50.874;7.024;2023-04-29T06:27:39;9.90;99.90
30889;DHT22;51092;50.874;7.024;2023-04-29T06:28:41;9.90;99.90
30889;DHT22;51092;50.874;7.024;2023-04-29T06:29:43;9.90;99.90
30889;DHT22;51092;50.874;7.024;2023-04-29T06:30:45;10.00;99.90
30889;DHT22;51092;50.874;7.024;2023-04-29T06:31:47;10.00;99.90
30889;DHT22;51092;50.874;7.024;2023-04-29T06:32:49;10.10;99.90
30889;DHT22;51092;50.874;7.024;2023-04-29T06:33:51;9.90;99.90
30889;DHT22;51092;50.874;7.024;2023-04-29T06:34:55;10.00;99.90
30889;DHT22;51092;50.874;7.024;2023-04-29T06:35:56;10.00;99.90
30889;DHT22;51092;50.874;7.024;2023-04-29T06:36:59;10.00;99.90
30889;DHT22;51092;50.874;7.024;2023-04-29T06:38:00;10.00;99.90
30889;DHT22;51092;50.874;7.024;2023-04-29T06:39:03;10.00;99.90